createdAt,value
2023-03-15T00:01:15.240Z,100717.22
2023-03-15T00:03:42.739Z,100709.47
2023-03-15T00:06:09.578Z,100715.84
2023-03-15T00:08:36.107Z,100717.66
2023-03-15T00:11:03.170Z,100719.78
2023-03-15T00:13:30.529Z,100723.44
2023-03-15T00:15:59.250Z,100723.22
2023-03-15T00:18:26.444Z,100732.84
2023-03-15T00:20:52.814Z,100728.53
2023-03-15T00:23:19.165Z,100732.06
2023-03-15T00:25:46.936Z,100743.38
2023-03-15T00:28:13.966Z,100740.63
2023-03-15T00:30:40.740Z,100742.16
2023-03-15T00:33:07.605Z,100740.47
2023-03-15T00:35:38.495Z,100743.50
2023-03-15T00:38:04.837Z,100746.25
2023-03-15T00:40:31.155Z,100744.91
2023-03-15T00:42:57.734Z,100754.09
2023-03-15T00:45:24.278Z,100753.94
2023-03-15T00:47:52.212Z,100752.88
2023-03-15T00:50:21.399Z,100756.03
2023-03-15T00:52:47.836Z,100751.53
2023-03-15T00:55:19.548Z,100760.03
2023-03-15T00:57:47.707Z,100758.19
2023-03-15T01:00:24.662Z,100760.72
2023-03-15T01:02:53.286Z,100765.22
2023-03-15T01:05:21.259Z,100764.50
2023-03-15T01:07:48.497Z,100768.06
2023-03-15T01:10:15.417Z,100769.78
2023-03-15T01:12:41.880Z,100768.81
2023-03-15T01:15:12.685Z,100770.66
2023-03-15T01:17:39.129Z,100773.34
2023-03-15T01:20:06.323Z,100764.66
2023-03-15T01:22:32.705Z,100771.69
2023-03-15T01:24:59.175Z,100763.75
2023-03-15T01:27:25.597Z,100762.09
2023-03-15T01:29:53.090Z,100766.44
2023-03-15T01:32:19.446Z,100765.47
2023-03-15T01:34:46.060Z,100760.94
2023-03-15T01:37:14.364Z,100770.59
2023-03-15T01:39:42.793Z,100768.13
2023-03-15T01:42:10.340Z,100766.34
2023-03-15T01:44:53.863Z,100775.13
2023-03-15T01:47:21.216Z,100779.50
2023-03-15T01:49:52.911Z,100775.03
2023-03-15T01:52:30.157Z,100786.59
2023-03-15T01:55:12.656Z,100787.25
2023-03-15T01:57:56.021Z,100797.00
2023-03-15T02:00:24.231Z,100789.56
2023-03-15T02:03:08.326Z,100794.84
2023-03-15T02:05:45.861Z,100801.09
2023-03-15T02:08:18.784Z,100799.56
2023-03-15T02:10:53.156Z,100800.25
2023-03-15T02:13:23.374Z,100808.41
2023-03-15T02:15:53.443Z,100805.69
2023-03-15T02:18:25.268Z,100816.94
2023-03-15T02:21:22.352Z,100816.25
2023-03-15T02:23:57.685Z,100813.72
2023-03-15T02:26:34.652Z,100812.91
2023-03-15T02:29:01.304Z,100813.72
2023-03-15T02:31:28.612Z,100808.41
2023-03-15T02:33:55.910Z,100813.47
2023-03-15T02:36:28.368Z,100810.13
2023-03-15T02:38:56.584Z,100819.81
2023-03-15T02:41:28.623Z,100819.81
2023-03-15T02:44:00.425Z,100817.19
2023-03-15T02:46:27.354Z,100826.66
2023-03-15T02:48:54.168Z,100822.59
2023-03-15T02:51:23.655Z,100821.78
2023-03-15T02:53:50.947Z,100828.75
2023-03-15T02:56:18.820Z,100833.31
2023-03-15T02:58:46.311Z,100829.00
2023-03-15T03:01:15.589Z,100832.66
2023-03-15T03:03:43.198Z,100844.84
2023-03-15T03:06:10.668Z,100843.94
2023-03-15T03:08:38.774Z,100842.13
2023-03-15T03:11:06.977Z,100847.38
2023-03-15T03:13:34.052Z,100859.59
2023-03-15T03:16:03.499Z,100856.81
2023-03-15T03:18:35.547Z,100856.72
2023-03-15T03:21:05.894Z,100878.59
2023-03-15T03:23:33.877Z,100889.38
2023-03-15T03:26:00.710Z,100884.03
2023-03-15T03:28:30.439Z,100891.06
2023-03-15T03:30:58.495Z,100894.75
2023-03-15T03:33:26.397Z,100896.47
2023-03-15T03:35:54.041Z,100902.72
2023-03-15T03:38:20.538Z,100910.47
2023-03-15T03:40:53.811Z,100908.75
2023-03-15T03:43:20.165Z,100906.06
2023-03-15T03:45:46.707Z,100911.56
2023-03-15T03:48:13.249Z,100912.38
2023-03-15T03:50:39.555Z,100917.66
2023-03-15T03:53:05.875Z,100918.59
2023-03-15T03:55:34.418Z,100930.91
2023-03-15T03:58:00.969Z,100925.50
2023-03-15T04:00:54.079Z,100933.31
2023-03-15T04:03:26.958Z,100937.88
2023-03-15T04:05:59.257Z,100935.47
2023-03-15T04:08:27.631Z,100942.63
2023-03-15T04:10:56.247Z,100945.31
2023-03-15T04:13:25.662Z,100942.56
2023-03-15T04:15:57.308Z,100949.53
2023-03-15T04:18:27.261Z,100942.44
2023-03-15T04:20:54.642Z,100948.00
2023-03-15T04:23:24.528Z,100964.81
2023-03-15T04:26:03.386Z,100957.94
2023-03-15T04:28:43.303Z,100961.50
2023-03-15T04:31:27.930Z,100954.34
2023-03-15T04:34:05.659Z,100963.41
2023-03-15T04:36:54.566Z,100956.41
2023-03-15T04:39:52.333Z,100966.00
2023-03-15T04:42:29.455Z,100966.97
2023-03-15T04:45:12.479Z,100967.88
2023-03-15T04:47:57.823Z,100970.47
2023-03-15T04:50:42.866Z,100973.13
2023-03-15T04:53:35.325Z,100973.44
2023-03-15T04:56:24.661Z,100976.00
2023-03-15T04:59:06.968Z,100971.88
2023-03-15T05:01:49.370Z,100983.16
2023-03-15T05:04:22.472Z,100980.00
2023-03-15T05:07:09.572Z,100989.78
2023-03-15T05:09:59.105Z,100990.63
2023-03-15T05:12:38.901Z,100995.00
2023-03-15T05:15:20.571Z,100994.91
2023-03-15T05:18:11.002Z,101002.81
2023-03-15T05:20:57.717Z,101002.91
2023-03-15T05:23:45.831Z,101010.16
2023-03-15T05:26:30.563Z,101011.06
2023-03-15T05:29:13.653Z,101018.91
2023-03-15T05:31:52.529Z,101026.06
2023-03-15T05:34:28.676Z,101033.91
2023-03-15T05:37:00.596Z,101036.53
2023-03-15T05:40:09.680Z,101044.88
2023-03-15T05:42:41.802Z,101045.75
2023-03-15T05:45:25.850Z,101051.88
2023-03-15T05:48:27.556Z,101056.31
2023-03-15T05:51:04.110Z,101064.22
2023-03-15T05:53:49.471Z,101071.97
2023-03-15T05:56:34.229Z,101077.16
2023-03-15T05:59:17.515Z,101084.09
2023-03-15T06:02:08.028Z,101087.56
2023-03-15T06:04:42.751Z,101095.38
2023-03-15T06:07:11.639Z,101104.25
2023-03-15T06:09:38.179Z,101104.16
2023-03-15T06:12:05.311Z,101109.22
2023-03-15T06:14:31.967Z,101114.34
2023-03-15T06:17:03.390Z,101115.16
2023-03-15T06:19:30.672Z,101108.84
2023-03-15T06:21:57.109Z,101111.59
2023-03-15T06:24:30.349Z,101118.63
2023-03-15T06:26:56.717Z,101114.25
2023-03-15T06:29:23.560Z,101119.50
2023-03-15T06:31:52.805Z,101119.25
2023-03-15T06:34:21.032Z,101127.28
2023-03-15T06:36:49.380Z,101128.25
2023-03-15T06:39:16.500Z,101125.53
2023-03-15T06:41:43.534Z,101120.59
2023-03-15T06:44:15.563Z,101131.31
2023-03-15T06:46:42.006Z,101130.28
2023-03-15T06:49:08.424Z,101139.88
2023-03-15T06:51:35.731Z,101143.25
2023-03-15T06:54:02.865Z,101154.69
2023-03-15T06:56:30.387Z,101158.91
2023-03-15T06:58:56.734Z,101160.22
2023-03-15T07:01:23.118Z,101163.56
2023-03-15T07:03:50.025Z,101166.28
2023-03-15T07:06:16.344Z,101169.69
2023-03-15T07:08:42.721Z,101174.81
2023-03-15T07:11:09.224Z,101184.41
2023-03-15T07:13:35.574Z,101189.59
2023-03-15T07:16:01.905Z,101193.03
2023-03-15T07:18:28.262Z,101198.53
2023-03-15T07:20:59.391Z,101203.69
2023-03-15T07:23:26.165Z,101205.38
2023-03-15T07:25:55.435Z,101207.81
2023-03-15T07:28:24.498Z,101213.03
2023-03-15T07:31:02.373Z,101211.22
2023-03-15T07:33:30.795Z,101213.56
2023-03-15T07:35:57.642Z,101212.63
2023-03-15T07:38:28.684Z,101215.31
2023-03-15T07:40:55.199Z,101216.06
2023-03-15T07:43:21.620Z,101222.44
2023-03-15T07:45:50.868Z,101228.31
2023-03-15T07:48:17.240Z,101237.88
2023-03-15T07:50:43.613Z,101249.22
2023-03-15T07:53:09.958Z,101258.03
2023-03-15T07:55:36.293Z,101257.66
2023-03-15T07:58:03.449Z,101270.94
2023-03-15T08:00:30.421Z,101270.97
2023-03-15T08:02:56.852Z,101275.28
2023-03-15T08:05:24.215Z,101281.44
2023-03-15T08:07:50.876Z,101296.94
2023-03-15T08:10:18.333Z,101301.09
2023-03-15T08:12:45.013Z,101297.94
2023-03-15T08:15:15.494Z,101308.97
2023-03-15T08:17:42.092Z,101315.84
2023-03-15T08:20:11.502Z,101314.94
2023-03-15T08:22:38.969Z,101321.34
2023-03-15T08:25:05.923Z,101321.81
2023-03-15T08:27:32.299Z,101324.16
2023-03-15T08:29:58.614Z,101324.16
2023-03-15T08:32:25.047Z,101323.91
2023-03-15T08:34:53.014Z,101327.25
2023-03-15T08:37:19.397Z,101333.09
2023-03-15T08:39:45.768Z,101337.41
2023-03-15T08:42:12.233Z,101344.00
2023-03-15T08:44:38.575Z,101345.06
2023-03-15T08:47:05.186Z,101342.13
2023-03-15T08:49:32.134Z,101347.38
2023-03-15T08:51:58.543Z,101356.69
2023-03-15T08:54:27.335Z,101350.19
2023-03-15T08:56:53.758Z,101361.31
2023-03-15T08:59:31.403Z,101366.88
2023-03-15T09:02:00.533Z,101366.16
2023-03-15T09:04:27.281Z,101367.72
2023-03-15T09:06:53.804Z,101370.97
2023-03-15T09:09:20.156Z,101376.84
2023-03-15T09:11:46.479Z,101375.84
2023-03-15T09:14:12.806Z,101379.63
2023-03-15T09:16:39.164Z,101379.78
2023-03-15T09:19:05.547Z,101387.13
2023-03-15T09:21:31.908Z,101377.41
2023-03-15T09:23:58.353Z,101384.66
2023-03-15T09:26:24.731Z,101391.88
2023-03-15T09:28:51.095Z,101386.97
2023-03-15T09:31:17.447Z,101398.94
2023-03-15T09:33:46.472Z,101392.66
2023-03-15T09:36:12.969Z,101389.81
2023-03-15T09:38:41.654Z,101388.88
2023-03-15T09:41:20.727Z,101398.69
2023-03-15T09:44:05.065Z,101403.09
2023-03-15T09:46:40.173Z,101413.47
2023-03-15T09:49:21.996Z,101407.59
2023-03-15T09:52:03.424Z,101414.31
2023-03-15T09:54:46.061Z,101406.00
2023-03-15T09:57:19.493Z,101407.91
2023-03-15T09:59:50.828Z,101403.78
2023-03-15T10:02:29.341Z,101398.25
2023-03-15T10:05:07.681Z,101402.44
2023-03-15T10:07:35.794Z,101405.28
2023-03-15T10:10:04.803Z,101408.03
2023-03-15T10:12:41.168Z,101401.69
2023-03-15T10:15:21.841Z,101406.00
2023-03-15T10:18:09.971Z,101411.06
2023-03-15T10:20:41.642Z,101401.28
2023-03-15T10:23:22.494Z,101404.28
2023-03-15T10:25:51.342Z,101403.53
2023-03-15T10:28:36.201Z,101401.91
2023-03-15T10:31:22.381Z,101400.84
2023-03-15T10:33:56.974Z,101400.91
2023-03-15T10:36:25.052Z,101399.66
2023-03-15T10:38:51.585Z,101405.44
2023-03-15T10:41:38.238Z,101400.53
2023-03-15T10:44:09.695Z,101414.06
2023-03-15T10:46:36.110Z,101407.72
2023-03-15T10:49:13.200Z,101414.97
2023-03-15T10:51:48.097Z,101413.28
2023-03-15T10:54:19.659Z,101426.16
2023-03-15T10:57:12.604Z,101425.97
2023-03-15T10:59:55.200Z,101419.25
2023-03-15T11:02:24.904Z,101414.47
2023-03-15T11:05:03.972Z,101422.03
2023-03-15T11:07:34.994Z,101424.03
2023-03-15T11:10:03.486Z,101422.34
2023-03-15T11:12:33.270Z,101418.91
2023-03-15T11:15:13.932Z,101417.44
2023-03-15T11:17:46.353Z,101425.09
2023-03-15T11:20:40.742Z,101424.38
2023-03-15T11:23:20.404Z,101431.25
2023-03-15T11:25:47.249Z,101432.38
2023-03-15T11:28:22.385Z,101440.00
2023-03-15T11:30:49.329Z,101433.81
2023-03-15T11:33:29.499Z,101437.78
2023-03-15T11:35:58.619Z,101456.94
2023-03-15T11:38:34.984Z,101456.38
2023-03-15T11:41:10.869Z,101457.59
2023-03-15T11:43:54.591Z,101451.50
2023-03-15T11:46:20.940Z,101450.72
2023-03-15T11:48:53.843Z,101452.97
2023-03-15T11:51:20.587Z,101454.97
2023-03-15T11:54:05.379Z,101453.81
2023-03-15T11:56:43.976Z,101452.31
2023-03-15T11:59:21.237Z,101449.72
2023-03-15T12:01:54.714Z,101449.72
2023-03-15T12:04:33.530Z,101445.88
2023-03-15T12:07:03.382Z,101439.47
2023-03-15T12:09:32.535Z,101431.16
2023-03-15T12:12:01.697Z,101435.09
2023-03-15T12:14:34.584Z,101434.38
2023-03-15T12:17:28.461Z,101428.66
2023-03-15T12:20:11.940Z,101430.19
2023-03-15T12:22:43.254Z,101430.06
2023-03-15T12:25:16.481Z,101436.25
2023-03-15T12:27:50.448Z,101443.63
2023-03-15T12:30:32.102Z,101439.41
2023-03-15T12:32:59.277Z,101441.38
2023-03-15T12:35:33.172Z,101431.16
2023-03-15T12:38:01.503Z,101434.13
2023-03-15T12:40:27.847Z,101432.47
2023-03-15T12:42:54.268Z,101429.28
2023-03-15T12:45:20.592Z,101433.66
2023-03-15T12:47:49.717Z,101425.94
2023-03-15T12:50:44.129Z,101425.53
2023-03-15T12:53:19.633Z,101422.47
2023-03-15T12:55:47.524Z,101424.28
2023-03-15T12:58:17.442Z,101433.72
2023-03-15T13:00:44.791Z,101443.28
2023-03-15T13:03:16.644Z,101435.69
2023-03-15T13:06:08.425Z,101431.75
2023-03-15T13:09:19.798Z,101440.47
2023-03-15T13:11:54.779Z,101440.03
2023-03-15T13:14:39.228Z,101438.75
2023-03-15T13:17:09.903Z,101438.19
2023-03-15T13:19:44.392Z,101437.25
2023-03-15T13:22:19.606Z,101438.28
2023-03-15T13:24:58.415Z,101443.53
2023-03-15T13:27:24.689Z,101452.97
2023-03-15T13:29:51.464Z,101446.03
2023-03-15T13:32:23.078Z,101444.38
2023-03-15T13:34:49.794Z,101445.97
2023-03-15T13:37:22.039Z,101445.97
2023-03-15T13:40:05.142Z,101443.03
2023-03-15T13:42:32.275Z,101446.00
2023-03-15T13:45:12.429Z,101451.72
2023-03-15T13:47:42.231Z,101437.19
2023-03-15T13:50:13.502Z,101445.94
2023-03-15T13:52:41.579Z,101434.44
2023-03-15T13:55:09.931Z,101440.41
2023-03-15T13:57:36.699Z,101438.72
2023-03-15T14:00:11.430Z,101440.28
2023-03-15T14:02:46.501Z,101450.00
2023-03-15T14:05:17.143Z,101446.00
2023-03-15T14:07:46.541Z,101447.56
2023-03-15T14:10:18.746Z,101454.66
2023-03-15T14:12:46.056Z,101455.97
2023-03-15T14:15:24.798Z,101447.59
2023-03-15T14:18:11.680Z,101451.06
2023-03-15T14:20:44.573Z,101445.94
2023-03-15T14:23:18.701Z,101448.28
2023-03-15T14:25:52.257Z,101451.44
2023-03-15T14:28:19.831Z,101458.75
2023-03-15T14:30:55.502Z,101457.09
2023-03-15T14:33:41.569Z,101454.97
2023-03-15T14:36:21.912Z,101462.69
2023-03-15T14:38:53.873Z,101461.59
2023-03-15T14:41:31.349Z,101467.44
2023-03-15T14:43:57.806Z,101458.44
2023-03-15T14:46:24.174Z,101468.25
2023-03-15T14:48:51.531Z,101457.88
2023-03-15T14:51:20.524Z,101469.25
2023-03-15T14:53:51.057Z,101475.53
2023-03-15T14:56:19.848Z,101478.19
2023-03-15T14:58:46.548Z,101475.13
2023-03-15T15:01:16.639Z,101481.75
2023-03-15T15:03:47.028Z,101483.38
2023-03-15T15:06:14.897Z,101479.75
2023-03-15T15:08:45.843Z,101482.91
2023-03-15T15:11:12.740Z,101491.69
2023-03-15T15:13:39.536Z,101488.75
2023-03-15T15:16:06.595Z,101485.25
2023-03-15T15:18:35.611Z,101492.66
2023-03-15T15:21:10.669Z,101492.81
2023-03-15T15:23:54.922Z,101482.56
2023-03-15T15:26:28.442Z,101480.84
2023-03-15T15:28:56.273Z,101475.00
2023-03-15T15:31:24.492Z,101473.28
2023-03-15T15:33:55.083Z,101483.69
2023-03-15T15:36:26.890Z,101484.66
2023-03-15T15:38:53.232Z,101481.91
2023-03-15T15:41:24.597Z,101483.13
2023-03-15T15:43:51.328Z,101473.66
2023-03-15T15:46:17.864Z,101472.22
2023-03-15T15:48:44.622Z,101476.16
2023-03-15T15:51:24.662Z,101479.56
2023-03-15T15:53:51.519Z,101479.63
2023-03-15T15:56:18.279Z,101485.09
2023-03-15T15:58:45.954Z,101484.53
2023-03-15T16:01:14.154Z,101480.34
2023-03-15T16:03:41.464Z,101477.44
2023-03-15T16:06:17.470Z,101471.56
2023-03-15T16:08:45.219Z,101469.81
2023-03-15T16:11:14.891Z,101474.28
2023-03-15T16:13:42.736Z,101474.44
2023-03-15T16:16:15.973Z,101479.56
2023-03-15T16:18:43.114Z,101473.78
2023-03-15T16:21:21.992Z,101473.44
2023-03-15T16:23:57.980Z,101472.75
2023-03-15T16:26:24.906Z,101466.41
2023-03-15T16:28:51.887Z,101464.81
2023-03-15T16:31:21.883Z,101467.31
2023-03-15T16:33:49.708Z,101465.66
2023-03-15T16:36:21.295Z,101465.81
2023-03-15T16:38:48.028Z,101479.94
2023-03-15T16:41:16.712Z,101478.25
2023-03-15T16:43:43.135Z,101486.06
2023-03-15T16:46:16.504Z,101476.97
2023-03-15T16:48:43.318Z,101477.97
2023-03-15T16:51:12.910Z,101473.59
2023-03-15T16:53:44.401Z,101470.13
2023-03-15T16:56:13.474Z,101472.00
2023-03-15T16:58:40.559Z,101486.47
2023-03-15T17:01:09.542Z,101484.94
2023-03-15T17:03:36.411Z,101499.25
2023-03-15T17:06:02.834Z,101492.38
2023-03-15T17:08:29.328Z,101493.22
2023-03-15T17:10:55.766Z,101494.91
2023-03-15T17:13:28.427Z,101497.00
2023-03-15T17:15:54.819Z,101493.88
2023-03-15T17:18:22.294Z,101498.72
2023-03-15T17:20:49.125Z,101505.16
2023-03-15T17:23:16.323Z,101502.81
2023-03-15T17:25:42.868Z,101501.47
2023-03-15T17:28:09.370Z,101504.56
2023-03-15T17:30:37.359Z,101505.81
2023-03-15T17:33:04.732Z,101505.00
2023-03-15T17:35:35.251Z,101502.72
2023-03-15T17:38:07.072Z,101507.53
2023-03-15T17:40:35.580Z,101516.66
2023-03-15T17:43:03.534Z,101521.19
2023-03-15T17:45:34.323Z,101522.13
2023-03-15T17:48:01.831Z,101520.94
2023-03-15T17:50:30.402Z,101514.16
2023-03-15T17:53:12.091Z,101522.13
2023-03-15T17:55:38.926Z,101516.97
2023-03-15T17:58:20.336Z,101527.72
2023-03-15T18:00:48.377Z,101525.03
2023-03-15T18:03:16.810Z,101527.94
2023-03-15T18:05:43.619Z,101531.66
2023-03-15T18:08:18.067Z,101525.53
2023-03-15T18:10:46.031Z,101519.69
2023-03-15T18:13:17.154Z,101526.72
2023-03-15T18:15:44.508Z,101531.34
2023-03-15T18:18:10.869Z,101533.75
2023-03-15T18:20:37.526Z,101537.34
2023-03-15T18:23:04.887Z,101541.03
2023-03-15T18:25:34.084Z,101546.19
2023-03-15T18:28:01.133Z,101534.88
2023-03-15T18:30:29.402Z,101548.09
2023-03-15T18:32:56.648Z,101545.75
2023-03-15T18:35:26.611Z,101550.19
2023-03-15T18:37:55.824Z,101554.69
2023-03-15T18:40:22.130Z,101553.97
2023-03-15T18:42:48.467Z,101554.88
2023-03-15T18:45:18.533Z,101565.78
2023-03-15T18:47:45.175Z,101565.91
2023-03-15T18:50:12.529Z,101558.19
2023-03-15T18:52:39.614Z,101561.38
2023-03-15T18:55:09.479Z,101560.59
2023-03-15T18:57:36.924Z,101565.16
2023-03-15T19:00:13.063Z,101562.66
2023-03-15T19:02:45.541Z,101562.66
2023-03-15T19:05:13.686Z,101577.78
2023-03-15T19:07:40.414Z,101571.59
2023-03-15T19:10:09.317Z,101572.66
2023-03-15T19:12:35.732Z,101568.31
2023-03-15T19:15:02.915Z,101568.47
2023-03-15T19:17:29.230Z,101572.03
2023-03-15T19:19:55.543Z,101568.50
2023-03-15T19:22:21.904Z,101572.03
2023-03-15T19:24:48.207Z,101572.91
2023-03-15T19:27:14.986Z,101566.81
2023-03-15T19:29:41.444Z,101572.06
2023-03-15T19:32:07.840Z,101578.22
2023-03-15T19:34:34.225Z,101572.78
2023-03-15T19:37:01.085Z,101574.84
2023-03-15T19:39:27.452Z,101574.84
2023-03-15T19:41:53.805Z,101571.00
2023-03-15T19:44:22.248Z,101578.22
2023-03-15T19:46:49.763Z,101573.75
2023-03-15T19:49:16.099Z,101578.91
2023-03-15T19:51:42.432Z,101569.16
2023-03-15T19:54:08.813Z,101569.06
2023-03-15T19:56:35.277Z,101571.72
2023-03-15T19:59:01.694Z,101562.06
2023-03-15T20:01:28.241Z,101568.28
2023-03-15T20:03:54.663Z,101578.94
2023-03-15T20:06:21.918Z,101585.47
2023-03-15T20:08:48.500Z,101584.75
2023-03-15T20:11:19.946Z,101590.25
2023-03-15T20:13:46.746Z,101587.78
2023-03-15T20:16:13.326Z,101594.16
2023-03-15T20:18:39.677Z,101601.38
2023-03-15T20:21:06.139Z,101594.16
2023-03-15T20:23:33.318Z,101595.09
2023-03-15T20:26:05.920Z,101597.59
2023-03-15T20:28:32.344Z,101591.53
2023-03-15T20:30:58.948Z,101593.59
2023-03-15T20:33:25.345Z,101588.13
2023-03-15T20:35:52.937Z,101595.09
2023-03-15T20:38:19.372Z,101593.38
2023-03-15T20:40:46.043Z,101589.84
2023-03-15T20:43:12.526Z,101595.13
2023-03-15T20:45:38.900Z,101595.00
2023-03-15T20:48:05.928Z,101595.25
2023-03-15T20:50:32.452Z,101597.78
2023-03-15T20:52:58.756Z,101591.94
2023-03-15T20:55:25.840Z,101588.47
2023-03-15T20:57:53.401Z,101586.72
2023-03-15T21:00:20.741Z,101585.84
2023-03-15T21:02:47.730Z,101584.88
2023-03-15T21:05:14.774Z,101587.47
2023-03-15T21:07:41.480Z,101580.44
2023-03-15T21:10:09.728Z,101592.91
2023-03-15T21:12:36.173Z,101585.84
2023-03-15T21:15:02.795Z,101594.63
2023-03-15T21:17:29.155Z,101578.63
2023-03-15T21:19:55.490Z,101578.00
2023-03-15T21:22:21.894Z,101575.50
2023-03-15T21:24:55.565Z,101579.31
2023-03-15T21:27:25.926Z,101584.53
2023-03-15T21:29:52.273Z,101580.28
2023-03-15T21:32:18.575Z,101577.66
2023-03-15T21:34:44.938Z,101574.28
2023-03-15T21:37:11.273Z,101578.81
2023-03-15T21:39:40.606Z,101577.16
2023-03-15T21:42:07.013Z,101575.38
2023-03-15T21:44:37.339Z,101564.97
2023-03-15T21:47:06.596Z,101569.34
2023-03-15T21:49:33.052Z,101559.66
2023-03-15T21:51:59.732Z,101562.13
2023-03-15T21:54:26.118Z,101554.25
2023-03-15T21:56:53.008Z,101562.31
2023-03-15T21:59:19.701Z,101561.53
2023-03-15T22:01:48.247Z,101565.03
2023-03-15T22:04:14.562Z,101566.72
2023-03-15T22:06:40.887Z,101564.28
2023-03-15T22:09:07.410Z,101567.00
2023-03-15T22:11:33.757Z,101559.09
2023-03-15T22:14:00.091Z,101557.41
2023-03-15T22:16:26.500Z,101551.34
2023-03-15T22:18:52.842Z,101545.34
2023-03-15T22:21:19.391Z,101551.47
2023-03-15T22:23:45.788Z,101549.81
2023-03-15T22:26:12.260Z,101546.44
2023-03-15T22:28:38.731Z,101548.34
2023-03-15T22:31:05.352Z,101555.50
2023-03-15T22:33:31.806Z,101540.59
2023-03-15T22:35:58.993Z,101551.16
2023-03-15T22:38:26.187Z,101543.22
2023-03-15T22:41:01.283Z,101538.81
2023-03-15T22:43:27.719Z,101533.59
2023-03-15T22:45:54.088Z,101538.81
2023-03-15T22:48:20.988Z,101536.41
2023-03-15T22:50:47.302Z,101531.31
2023-03-15T22:53:13.622Z,101522.50
2023-03-15T22:55:39.938Z,101525.34
2023-03-15T22:58:06.302Z,101522.66
2023-03-15T23:00:32.619Z,101526.31
2023-03-15T23:02:58.939Z,101528.09
2023-03-15T23:05:25.261Z,101529.69
2023-03-15T23:07:51.589Z,101526.34
2023-03-15T23:10:17.973Z,101525.47
2023-03-15T23:12:44.351Z,101529.09
2023-03-15T23:15:13.139Z,101542.31
2023-03-15T23:17:40.023Z,101536.44
2023-03-15T23:20:07.366Z,101530.25
2023-03-15T23:22:33.744Z,101533.63
2023-03-15T23:25:00.090Z,101546.72
2023-03-15T23:27:26.522Z,101532.69
2023-03-15T23:29:54.794Z,101536.03
2023-03-15T23:32:24.726Z,101536.09
2023-03-15T23:34:51.274Z,101536.16
2023-03-15T23:37:17.612Z,101534.38
2023-03-15T23:39:45.099Z,101533.69
2023-03-15T23:42:12.153Z,101529.25
2023-03-15T23:44:41.567Z,101526.81
2023-03-15T23:47:08.145Z,101529.38
2023-03-15T23:49:34.480Z,101535.69
2023-03-15T23:52:06.042Z,101528.53
2023-03-15T23:54:39.318Z,101532.88
2023-03-15T23:57:11.561Z,101521.63
2023-03-15T23:59:38.936Z,101527.88
